sensor_id;sensor_type;location;lat;lon;timestamp;pressure;altitude;pressure_sealevel;temperature;humidity
39141;BME280;24875;48.436;10.298;2024-03-08T00:02:01;96155.09;;;3.48;100.00
39141;BME280;24875;48.436;10.298;2024-03-08T00:04:29;96143.69;;;3.39;100.00
39141;BME280;24875;48.436;10.298;2024-03-08T00:06:55;96150.00;;;3.37;100.00
39141;BME280;24875;48.436;10.298;2024-03-08T00:09:22;96151.38;;;3.41;100.00
39141;BME280;24875;48.436;10.298;2024-03-08T00:11:49;96146.72;;;3.35;100.00
39141;BME280;24875;48.436;10.298;2024-03-08T00:14:17;96144.66;;;3.29;100.00
39141;BME280;24875;48.436;10.298;2024-03-08T00:16:43;96142.59;;;3.32;100.00
39141;BME280;24875;48.436;10.298;2024-03-08T00:19:10;96147.25;;;3.29;100.00
39141;BME280;24875;48.436;10.298;2024-03-08T00:21:38;96150.69;;;3.48;100.00
39141;BME280;24875;48.436;10.298;2024-03-08T00:24:05;96147.53;;;3.45;100.00
39141;BME280;24875;48.436;10.298;2024-03-08T00:26:31;96139.72;;;3.35;100.00
39141;BME280;24875;48.436;10.298;2024-03-08T00:28:58;96141.72;;;3.13;100.00
39141;BME280;24875;48.436;10.298;2024-03-08T00:31:24;96142.16;;;3.18;100.00
39141;BME280;24875;48.436;10.298;2024-03-08T00:33:51;96140.38;;;3.28;100.00
39141;BME280;24875;48.436;10.298;2024-03-08T00:36:18;96128.88;;;3.30;100.00
39141;BME280;24875;48.436;10.298;2024-03-08T00:38:46;96131.75;;;3.37;100.00
39141;BME280;24875;48.436;10.298;2024-03-08T00:41:13;96125.31;;;3.12;100.00
39141;BME280;24875;48.436;10.298;2024-03-08T00:43:39;96126.38;;;3.10;100.00
39141;BME280;24875;48.436;10.298;2024-03-08T00:46:05;96123.78;;;3.10;100.00
39141;BME280;24875;48.436;10.298;2024-03-08T00:48:31;96109.78;;;3.01;100.00
39141;BME280;24875;48.436;10.298;2024-03-08T00:50:58;96120.75;;;3.05;100.00
39141;BME280;24875;48.436;10.298;2024-03-08T00:53:24;96116.25;;;3.07;100.00
39141;BME280;24875;48.436;10.298;2024-03-08T00:55:52;96109.97;;;3.09;100.00
39141;BME280;24875;48.436;10.298;2024-03-08T00:58:20;96107.19;;;2.92;100.00
39141;BME280;24875;48.436;10.298;2024-03-08T01:00:46;96106.34;;;2.82;100.00
39141;BME280;24875;48.436;10.298;2024-03-08T01:03:13;96104.28;;;2.76;100.00
39141;BME280;24875;48.436;10.298;2024-03-08T01:05:39;96097.28;;;2.77;100.00
39141;BME280;24875;48.436;10.298;2024-03-08T01:08:06;96097.84;;;2.80;100.00
39141;BME280;24875;48.436;10.298;2024-03-08T01:10:33;96089.06;;;2.72;100.00
39141;BME280;24875;48.436;10.298;2024-03-08T01:13:00;96087.03;;;2.75;100.00
39141;BME280;24875;48.436;10.298;2024-03-08T01:15:27;96096.16;;;2.60;100.00
39141;BME280;24875;48.436;10.298;2024-03-08T01:17:54;96086.56;;;2.61;100.00
39141;BME280;24875;48.436;10.298;2024-03-08T01:20:20;96085.47;;;2.63;100.00
39141;BME280;24875;48.436;10.298;2024-03-08T01:22:47;96070.66;;;2.54;100.00
39141;BME280;24875;48.436;10.298;2024-03-08T01:25:13;96079.88;;;2.58;100.00
39141;BME280;24875;48.436;10.298;2024-03-08T01:27:40;96081.25;;;2.62;100.00
39141;BME280;24875;48.436;10.298;2024-03-08T01:30:08;96081.16;;;2.83;100.00
39141;BME280;24875;48.436;10.298;2024-03-08T01:32:35;96074.81;;;2.66;100.00
39141;BME280;24875;48.436;10.298;2024-03-08T01:35:02;96070.19;;;2.79;100.00
39141;BME280;24875;48.436;10.298;2024-03-08T01:37:29;96066.63;;;2.80;100.00
39141;BME280;24875;48.436;10.298;2024-03-08T01:39:55;96061.44;;;2.90;100.00
39141;BME280;24875;48.436;10.298;2024-03-08T01:42:22;96064.75;;;2.92;100.00
39141;BME280;24875;48.436;10.298;2024-03-08T01:44:48;96063.16;;;2.61;100.00
39141;BME280;24875;48.436;10.298;2024-03-08T01:47:16;96055.81;;;2.75;100.00
39141;BME280;24875;48.436;10.298;2024-03-08T01:49:43;96053.81;;;2.40;100.00
39141;BME280;24875;48.436;10.298;2024-03-08T01:52:10;96051.50;;;2.55;100.00
39141;BME280;24875;48.436;10.298;2024-03-08T01:54:37;96048.00;;;2.75;100.00
39141;BME280;24875;48.436;10.298;2024-03-08T01:57:06;96047.19;;;2.84;100.00
39141;BME280;24875;48.436;10.298;2024-03-08T01:59:32;96044.31;;;2.78;100.00
39141;BME280;24875;48.436;10.298;2024-03-08T02:02:01;96048.28;;;2.91;100.00
39141;BME280;24875;48.436;10.298;2024-03-08T02:04:30;96049.25;;;3.09;100.00
39141;BME280;24875;48.436;10.298;2024-03-08T02:06:56;96047.63;;;2.89;100.00
39141;BME280;24875;48.436;10.298;2024-03-08T02:09:24;96038.84;;;3.00;100.00
39141;BME280;24875;48.436;10.298;2024-03-08T02:11:51;96041.59;;;2.98;100.00
39141;BME280;24875;48.436;10.298;2024-03-08T02:14:19;96037.75;;;3.02;100.00
39141;BME280;24875;48.436;10.298;2024-03-08T02:16:46;96040.63;;;2.99;100.00
39141;BME280;24875;48.436;10.298;2024-03-08T02:19:12;96030.09;;;3.01;100.00
39141;BME280;24875;48.436;10.298;2024-03-08T02:21:40;96035.41;;;2.99;100.00
39141;BME280;24875;48.436;10.298;2024-03-08T02:24:07;96035.84;;;2.95;100.00
39141;BME280;24875;48.436;10.298;2024-03-08T02:26:33;96025.53;;;2.84;100.00
39141;BME280;24875;48.436;10.298;2024-03-08T02:29:00;96030.88;;;2.82;100.00
39141;BME280;24875;48.436;10.298;2024-03-08T02:31:27;96025.44;;;2.37;100.00
39141;BME280;24875;48.436;10.298;2024-03-08T02:33:53;96028.81;;;2.57;100.00
39141;BME280;24875;48.436;10.298;2024-03-08T02:36:20;96028.53;;;2.60;100.00
39141;BME280;24875;48.436;10.298;2024-03-08T02:38:48;96018.16;;;2.79;100.00
39141;BME280;24875;48.436;10.298;2024-03-08T02:41:14;96013.91;;;2.69;100.00
39141;BME280;24875;48.436;10.298;2024-03-08T02:43:41;96020.59;;;2.62;100.00
39141;BME280;24875;48.436;10.298;2024-03-08T02:46:07;96019.34;;;2.66;100.00
39141;BME280;24875;48.436;10.298;2024-03-08T02:48:35;96017.59;;;2.66;100.00
39141;BME280;24875;48.436;10.298;2024-03-08T02:51:01;96022.00;;;2.75;100.00
39141;BME280;24875;48.436;10.298;2024-03-08T02:53:28;96011.56;;;2.66;100.00
39141;BME280;24875;48.436;10.298;2024-03-08T02:55:56;96012.97;;;2.79;100.00
39141;BME280;24875;48.436;10.298;2024-03-08T02:58:22;96004.69;;;2.55;100.00
39141;BME280;24875;48.436;10.298;2024-03-08T03:00:49;96002.22;;;2.44;100.00
39141;BME280;24875;48.436;10.298;2024-03-08T03:03:16;95994.00;;;2.49;100.00
39141;BME280;24875;48.436;10.298;2024-03-08T03:05:42;95997.84;;;2.36;100.00
39141;BME280;24875;48.436;10.298;2024-03-08T03:08:09;95994.44;;;2.44;100.00
39141;BME280;24875;48.436;10.298;2024-03-08T03:10:37;95991.56;;;2.47;100.00
39141;BME280;24875;48.436;10.298;2024-03-08T03:13:05;95995.66;;;2.59;100.00
39141;BME280;24875;48.436;10.298;2024-03-08T03:15:31;95997.16;;;2.43;100.00
39141;BME280;24875;48.436;10.298;2024-03-08T03:17:59;95995.25;;;2.45;100.00
39141;BME280;24875;48.436;10.298;2024-03-08T03:20:25;95990.47;;;2.50;100.00
39141;BME280;24875;48.436;10.298;2024-03-08T03:22:57;95998.66;;;2.45;100.00
39141;BME280;24875;48.436;10.298;2024-03-08T03:25:26;95992.13;;;2.51;100.00
39141;BME280;24875;48.436;10.298;2024-03-08T03:27:58;95978.66;;;2.27;100.00
39141;BME280;24875;48.436;10.298;2024-03-08T03:30:26;95987.69;;;2.33;100.00
39141;BME280;24875;48.436;10.298;2024-03-08T03:32:56;95984.00;;;1.96;100.00
39141;BME280;24875;48.436;10.298;2024-03-08T03:35:25;95990.63;;;2.00;100.00
39141;BME280;24875;48.436;10.298;2024-03-08T03:37:52;95989.75;;;1.90;100.00
39141;BME280;24875;48.436;10.298;2024-03-08T03:40:31;95981.34;;;2.07;100.00
39141;BME280;24875;48.436;10.298;2024-03-08T03:42:57;95983.00;;;2.17;100.00
39141;BME280;24875;48.436;10.298;2024-03-08T03:45:26;95982.31;;;2.15;100.00
39141;BME280;24875;48.436;10.298;2024-03-08T03:47:52;95988.91;;;1.89;100.00
39141;BME280;24875;48.436;10.298;2024-03-08T03:50:19;95983.94;;;2.16;100.00
39141;BME280;24875;48.436;10.298;2024-03-08T03:52:46;95979.72;;;2.15;100.00
39141;BME280;24875;48.436;10.298;2024-03-08T03:55:12;95981.25;;;2.18;100.00
39141;BME280;24875;48.436;10.298;2024-03-08T03:57:39;95979.00;;;2.04;100.00
39141;BME280;24875;48.436;10.298;2024-03-08T04:00:07;95982.97;;;2.08;100.00
39141;BME280;24875;48.436;10.298;2024-03-08T04:02:37;95976.44;;;2.23;100.00
39141;BME280;24875;48.436;10.298;2024-03-08T04:05:05;95971.22;;;2.13;100.00
39141;BME280;24875;48.436;10.298;2024-03-08T04:07:32;95972.88;;;2.14;100.00
39141;BME280;24875;48.436;10.298;2024-03-08T04:09:58;95969.78;;;1.90;100.00
39141;BME280;24875;48.436;10.298;2024-03-08T04:12:25;95963.00;;;1.99;100.00
39141;BME280;24875;48.436;10.298;2024-03-08T04:14:51;95965.22;;;2.13;100.00
39141;BME280;24875;48.436;10.298;2024-03-08T04:17:18;95966.59;;;2.17;100.00
39141;BME280;24875;48.436;10.298;2024-03-08T04:19:46;95962.81;;;2.40;100.00
39141;BME280;24875;48.436;10.298;2024-03-08T04:22:13;95964.72;;;2.38;100.00
39141;BME280;24875;48.436;10.298;2024-03-08T04:24:40;95964.19;;;2.43;100.00
39141;BME280;24875;48.436;10.298;2024-03-08T04:27:06;95963.88;;;2.28;100.00
39141;BME280;24875;48.436;10.298;2024-03-08T04:29:33;95963.22;;;2.44;100.00
39141;BME280;24875;48.436;10.298;2024-03-08T04:32:00;95958.03;;;2.44;100.00
39141;BME280;24875;48.436;10.298;2024-03-08T04:34:28;95953.78;;;2.53;100.00
39141;BME280;24875;48.436;10.298;2024-03-08T04:36:58;95961.88;;;2.78;100.00
39141;BME280;24875;48.436;10.298;2024-03-08T04:39:24;95951.59;;;2.77;100.00
39141;BME280;24875;48.436;10.298;2024-03-08T04:41:53;95948.84;;;2.88;100.00
39141;BME280;24875;48.436;10.298;2024-03-08T04:44:21;95949.28;;;2.74;100.00
39141;BME280;24875;48.436;10.298;2024-03-08T04:46:49;95941.31;;;2.66;100.00
39141;BME280;24875;48.436;10.298;2024-03-08T04:49:16;95943.94;;;2.56;100.00
39141;BME280;24875;48.436;10.298;2024-03-08T04:51:42;95938.75;;;2.56;100.00
39141;BME280;24875;48.436;10.298;2024-03-08T04:54:11;95939.56;;;2.66;100.00
39141;BME280;24875;48.436;10.298;2024-03-08T04:56:38;95937.50;;;2.60;100.00
39141;BME280;24875;48.436;10.298;2024-03-08T04:59:05;95933.41;;;2.48;100.00
39141;BME280;24875;48.436;10.298;2024-03-08T05:01:33;95938.31;;;2.51;100.00
39141;BME280;24875;48.436;10.298;2024-03-08T05:04:03;95926.69;;;2.55;100.00
39141;BME280;24875;48.436;10.298;2024-03-08T05:06:29;95933.81;;;2.53;100.00
39141;BME280;24875;48.436;10.298;2024-03-08T05:08:56;95934.91;;;2.60;100.00
39141;BME280;24875;48.436;10.298;2024-03-08T05:11:24;95931.06;;;2.83;100.00
39141;BME280;24875;48.436;10.298;2024-03-08T05:13:50;95935.44;;;2.73;100.00
39141;BME280;24875;48.436;10.298;2024-03-08T05:16:16;95927.09;;;2.79;100.00
39141;BME280;24875;48.436;10.298;2024-03-08T05:18:43;95924.75;;;2.95;100.00
39141;BME280;24875;48.436;10.298;2024-03-08T05:21:12;95924.63;;;2.97;100.00
39141;BME280;24875;48.436;10.298;2024-03-08T05:23:38;95925.03;;;2.73;100.00
39141;BME280;24875;48.436;10.298;2024-03-08T05:26:05;95926.97;;;2.81;100.00
39141;BME280;24875;48.436;10.298;2024-03-08T05:28:33;95921.75;;;3.00;100.00
39141;BME280;24875;48.436;10.298;2024-03-08T05:30:59;95932.59;;;2.76;100.00
39141;BME280;24875;48.436;10.298;2024-03-08T05:33:26;95923.13;;;2.66;100.00
39141;BME280;24875;48.436;10.298;2024-03-08T05:35:53;95918.47;;;2.69;100.00
39141;BME280;24875;48.436;10.298;2024-03-08T05:38:19;95920.78;;;2.91;100.00
39141;BME280;24875;48.436;10.298;2024-03-08T05:40:46;95920.13;;;2.89;100.00
39141;BME280;24875;48.436;10.298;2024-03-08T05:43:13;95911.31;;;3.09;100.00
39141;BME280;24875;48.436;10.298;2024-03-08T05:45:44;95916.53;;;2.90;100.00
39141;BME280;24875;48.436;10.298;2024-03-08T05:48:10;95920.53;;;2.56;100.00
39141;BME280;24875;48.436;10.298;2024-03-08T05:50:37;95921.34;;;2.66;100.00
39141;BME280;24875;48.436;10.298;2024-03-08T05:53:04;95922.72;;;2.89;100.00
39141;BME280;24875;48.436;10.298;2024-03-08T05:55:31;95924.50;;;2.98;100.00
39141;BME280;24875;48.436;10.298;2024-03-08T05:58:00;95920.38;;;2.96;100.00
39141;BME280;24875;48.436;10.298;2024-03-08T06:00:26;95924.19;;;3.01;100.00
39141;BME280;24875;48.436;10.298;2024-03-08T06:02:54;95917.56;;;3.35;100.00
39141;BME280;24875;48.436;10.298;2024-03-08T06:05:21;95925.56;;;3.05;100.00
39141;BME280;24875;48.436;10.298;2024-03-08T06:07:48;95909.81;;;3.16;100.00
39141;BME280;24875;48.436;10.298;2024-03-08T06:10:15;95920.50;;;3.03;100.00
39141;BME280;24875;48.436;10.298;2024-03-08T06:12:43;95915.97;;;3.15;100.00
39141;BME280;24875;48.436;10.298;2024-03-08T06:15:10;95910.47;;;3.18;100.00
39141;BME280;24875;48.436;10.298;2024-03-08T06:17:39;95923.06;;;3.13;100.00
39141;BME280;24875;48.436;10.298;2024-03-08T06:20:08;95906.88;;;3.38;100.00
39141;BME280;24875;48.436;10.298;2024-03-08T06:22:38;95915.38;;;3.30;100.00
39141;BME280;24875;48.436;10.298;2024-03-08T06:25:06;95921.69;;;3.28;100.00
39141;BME280;24875;48.436;10.298;2024-03-08T06:27:33;95917.28;;;3.38;100.00
39141;BME280;24875;48.436;10.298;2024-03-08T06:29:59;95908.13;;;3.34;100.00
39141;BME280;24875;48.436;10.298;2024-03-08T06:32:25;95913.97;;;3.36;100.00
39141;BME280;24875;48.436;10.298;2024-03-08T06:34:52;95907.97;;;3.35;100.00
39141;BME280;24875;48.436;10.298;2024-03-08T06:37:20;95915.53;;;3.65;100.00
39141;BME280;24875;48.436;10.298;2024-03-08T06:39:47;95916.72;;;3.44;100.00
39141;BME280;24875;48.436;10.298;2024-03-08T06:42:14;95916.19;;;3.31;100.00
39141;BME280;24875;48.436;10.298;2024-03-08T06:44:40;95912.81;;;3.21;100.00
39141;BME280;24875;48.436;10.298;2024-03-08T06:47:14;95911.22;;;3.47;100.00
39141;BME280;24875;48.436;10.298;2024-03-08T06:49:40;95914.47;;;3.58;100.00
39141;BME280;24875;48.436;10.298;2024-03-08T06:52:07;95909.50;;;3.64;100.00
39141;BME280;24875;48.436;10.298;2024-03-08T06:54:35;95906.22;;;3.62;100.00
39141;BME280;24875;48.436;10.298;2024-03-08T06:57:02;95916.72;;;3.34;100.00
39141;BME280;24875;48.436;10.298;2024-03-08T06:59:29;95919.47;;;3.33;100.00
39141;BME280;24875;48.436;10.298;2024-03-08T07:01:55;95913.69;;;3.48;100.00
39141;BME280;24875;48.436;10.298;2024-03-08T07:04:22;95906.06;;;3.28;100.00
39141;BME280;24875;48.436;10.298;2024-03-08T07:06:51;95917.25;;;3.47;100.00
39141;BME280;24875;48.436;10.298;2024-03-08T07:09:18;95918.31;;;3.54;100.00
39141;BME280;24875;48.436;10.298;2024-03-08T07:11:46;95912.75;;;3.76;100.00
39141;BME280;24875;48.436;10.298;2024-03-08T07:14:16;95913.56;;;3.76;100.00
39141;BME280;24875;48.436;10.298;2024-03-08T07:16:43;95909.69;;;3.80;100.00
39141;BME280;24875;48.436;10.298;2024-03-08T07:19:09;95909.69;;;3.80;100.00
39141;BME280;24875;48.436;10.298;2024-03-08T07:21:37;95910.16;;;3.76;100.00
39141;BME280;24875;48.436;10.298;2024-03-08T07:24:04;95912.28;;;3.54;100.00
39141;BME280;24875;48.436;10.298;2024-03-08T07:26:51;95909.91;;;3.60;100.00
39141;BME280;24875;48.436;10.298;2024-03-08T07:29:17;95911.72;;;3.60;100.00
39141;BME280;24875;48.436;10.298;2024-03-08T07:31:43;95912.56;;;3.51;100.00
39141;BME280;24875;48.436;10.298;2024-03-08T07:34:16;95896.09;;;3.60;100.00
39141;BME280;24875;48.436;10.298;2024-03-08T07:36:42;95897.44;;;3.63;100.00
39141;BME280;24875;48.436;10.298;2024-03-08T07:39:09;95895.03;;;3.53;100.00
39141;BME280;24875;48.436;10.298;2024-03-08T07:41:37;95888.44;;;3.49;100.00
39141;BME280;24875;48.436;10.298;2024-03-08T07:44:34;95890.41;;;4.00;100.00
39141;BME280;24875;48.436;10.298;2024-03-08T07:47:01;95891.28;;;3.64;100.00
39141;BME280;24875;48.436;10.298;2024-03-08T07:49:28;95885.13;;;3.56;100.00
39141;BME280;24875;48.436;10.298;2024-03-08T07:51:55;95883.53;;;3.82;100.00
39141;BME280;24875;48.436;10.298;2024-03-08T07:54:23;95879.63;;;3.32;100.00
39141;BME280;24875;48.436;10.298;2024-03-08T07:56:51;95877.16;;;3.58;100.00
39141;BME280;24875;48.436;10.298;2024-03-08T07:59:17;95876.31;;;3.66;100.00
39141;BME280;24875;48.436;10.298;2024-03-08T08:01:45;95875.63;;;3.91;100.00
39141;BME280;24875;48.436;10.298;2024-03-08T08:04:12;95867.25;;;3.70;100.00
39141;BME280;24875;48.436;10.298;2024-03-08T08:06:41;95867.34;;;3.78;100.00
39141;BME280;24875;48.436;10.298;2024-03-08T08:09:07;95865.78;;;3.85;100.00
39141;BME280;24875;48.436;10.298;2024-03-08T08:11:39;95869.41;;;4.02;100.00
39141;BME280;24875;48.436;10.298;2024-03-08T08:14:06;95871.00;;;3.85;100.00
39141;BME280;24875;48.436;10.298;2024-03-08T08:16:34;95869.94;;;4.05;100.00
39141;BME280;24875;48.436;10.298;2024-03-08T08:19:03;95869.47;;;4.10;100.00
39141;BME280;24875;48.436;10.298;2024-03-08T08:21:33;95871.66;;;4.14;100.00
39141;BME280;24875;48.436;10.298;2024-03-08T08:23:59;95864.25;;;4.10;100.00
39141;BME280;24875;48.436;10.298;2024-03-08T08:26:28;95870.31;;;4.10;100.00
39141;BME280;24875;48.436;10.298;2024-03-08T08:28:55;95860.53;;;4.12;100.00
39141;BME280;24875;48.436;10.298;2024-03-08T08:31:21;95867.31;;;4.05;100.00
39141;BME280;24875;48.436;10.298;2024-03-08T08:33:48;95864.09;;;4.38;100.00
39141;BME280;24875;48.436;10.298;2024-03-08T08:36:16;95865.56;;;4.58;100.00
39141;BME280;24875;48.436;10.298;2024-03-08T08:38:43;95860.03;;;4.26;100.00
39141;BME280;24875;48.436;10.298;2024-03-08T08:41:11;95855.72;;;4.52;100.00
39141;BME280;24875;48.436;10.298;2024-03-08T08:43:38;95852.53;;;4.23;100.00
39141;BME280;24875;48.436;10.298;2024-03-08T08:46:04;95848.13;;;4.41;100.00
39141;BME280;24875;48.436;10.298;2024-03-08T08:48:31;95841.94;;;4.42;100.00
39141;BME280;24875;48.436;10.298;2024-03-08T08:50:57;95846.78;;;4.37;100.00
39141;BME280;24875;48.436;10.298;2024-03-08T08:53:25;95839.16;;;4.78;100.00
39141;BME280;24875;48.436;10.298;2024-03-08T08:55:53;95833.44;;;4.57;100.00
39141;BME280;24875;48.436;10.298;2024-03-08T08:58:19;95844.38;;;4.78;100.00
39141;BME280;24875;48.436;10.298;2024-03-08T09:00:46;95839.81;;;4.80;100.00
39141;BME280;24875;48.436;10.298;2024-03-08T09:03:13;95835.63;;;4.87;100.00
39141;BME280;24875;48.436;10.298;2024-03-08T09:05:39;95832.47;;;5.01;100.00
39141;BME280;24875;48.436;10.298;2024-03-08T09:08:07;95836.13;;;5.08;100.00
39141;BME280;24875;48.436;10.298;2024-03-08T09:10:36;95835.81;;;5.11;100.00
39141;BME280;24875;48.436;10.298;2024-03-08T09:13:04;95829.13;;;4.91;100.00
39141;BME280;24875;48.436;10.298;2024-03-08T09:15:31;95832.38;;;4.85;100.00
39141;BME280;24875;48.436;10.298;2024-03-08T09:17:57;95828.28;;;4.82;100.00
39141;BME280;24875;48.436;10.298;2024-03-08T09:20:25;95824.38;;;5.12;100.00
39141;BME280;24875;48.436;10.298;2024-03-08T09:22:52;95820.16;;;5.19;100.00
39141;BME280;24875;48.436;10.298;2024-03-08T09:25:18;95813.69;;;5.31;100.00
39141;BME280;24875;48.436;10.298;2024-03-08T09:27:46;95816.56;;;5.45;100.00
39141;BME280;24875;48.436;10.298;2024-03-08T09:30:13;95811.47;;;5.10;100.00
39141;BME280;24875;48.436;10.298;2024-03-08T09:32:40;95816.47;;;5.29;100.00
39141;BME280;24875;48.436;10.298;2024-03-08T09:35:09;95820.66;;;5.47;100.00
39141;BME280;24875;48.436;10.298;2024-03-08T09:37:36;95815.88;;;5.10;100.00
39141;BME280;24875;48.436;10.298;2024-03-08T09:40:03;95803.44;;;5.37;100.00
39141;BME280;24875;48.436;10.298;2024-03-08T09:42:34;95804.09;;;5.31;100.00
39141;BME280;24875;48.436;10.298;2024-03-08T09:45:05;95800.53;;;5.40;100.00
39141;BME280;24875;48.436;10.298;2024-03-08T09:47:36;95806.69;;;5.64;100.00
39141;BME280;24875;48.436;10.298;2024-03-08T09:50:05;95799.59;;;5.49;100.00
39141;BME280;24875;48.436;10.298;2024-03-08T09:52:34;95798.28;;;5.12;100.00
39141;BME280;24875;48.436;10.298;2024-03-08T09:55:01;95804.50;;;5.19;100.00
39141;BME280;24875;48.436;10.298;2024-03-08T09:57:27;95800.81;;;5.04;100.00
39141;BME280;24875;48.436;10.298;2024-03-08T09:59:54;95800.41;;;4.91;100.00
39141;BME280;24875;48.436;10.298;2024-03-08T10:02:23;95798.19;;;5.29;100.00
39141;BME280;24875;48.436;10.298;2024-03-08T10:04:51;95794.19;;;5.76;100.00
39141;BME280;24875;48.436;10.298;2024-03-08T10:07:18;95805.00;;;5.89;100.00
39141;BME280;24875;48.436;10.298;2024-03-08T10:09:45;95800.09;;;5.86;100.00
39141;BME280;24875;48.436;10.298;2024-03-08T10:12:15;95801.41;;;5.90;100.00
39141;BME280;24875;48.436;10.298;2024-03-08T10:14:42;95801.69;;;5.79;100.00
39141;BME280;24875;48.436;10.298;2024-03-08T10:17:09;95796.88;;;6.07;100.00
39141;BME280;24875;48.436;10.298;2024-03-08T10:19:37;95802.38;;;5.81;100.00
39141;BME280;24875;48.436;10.298;2024-03-08T10:22:04;95800.25;;;5.51;100.00
39141;BME280;24875;48.436;10.298;2024-03-08T10:24:32;95795.97;;;5.42;100.00
39141;BME280;24875;48.436;10.298;2024-03-08T10:27:00;95798.03;;;5.64;100.00
39141;BME280;24875;48.436;10.298;2024-03-08T10:29:30;95793.41;;;5.91;100.00
39141;BME280;24875;48.436;10.298;2024-03-08T10:31:56;95788.53;;;5.96;100.00
39141;BME280;24875;48.436;10.298;2024-03-08T10:34:23;95783.19;;;6.21;100.00
39141;BME280;24875;48.436;10.298;2024-03-08T10:36:51;95779.59;;;6.22;100.00
39141;BME280;24875;48.436;10.298;2024-03-08T10:39:21;95785.97;;;6.20;100.00
39141;BME280;24875;48.436;10.298;2024-03-08T10:41:52;95779.72;;;6.21;100.00
39141;BME280;24875;48.436;10.298;2024-03-08T10:44:26;95773.56;;;6.46;100.00
39141;BME280;24875;48.436;10.298;2024-03-08T10:47:00;95763.22;;;6.84;100.00
39141;BME280;24875;48.436;10.298;2024-03-08T10:49:31;95765.94;;;7.14;100.00
39141;BME280;24875;48.436;10.298;2024-03-08T10:52:02;95769.09;;;6.94;100.00
39141;BME280;24875;48.436;10.298;2024-03-08T10:54:31;95772.69;;;6.77;100.00
39141;BME280;24875;48.436;10.298;2024-03-08T10:56:59;95770.09;;;6.77;100.00
39141;BME280;24875;48.436;10.298;2024-03-08T10:59:26;95761.88;;;6.96;100.00
39141;BME280;24875;48.436;10.298;2024-03-08T11:01:53;95762.22;;;6.93;100.00
39141;BME280;24875;48.436;10.298;2024-03-08T11:04:20;95758.22;;;7.13;100.00
39141;BME280;24875;48.436;10.298;2024-03-08T11:06:50;95747.13;;;7.57;100.00
39141;BME280;24875;48.436;10.298;2024-03-08T11:09:29;95756.38;;;7.75;100.00
39141;BME280;24875;48.436;10.298;2024-03-08T11:12:18;95749.16;;;7.77;100.00
39141;BME280;24875;48.436;10.298;2024-03-08T11:14:45;95739.91;;;8.19;100.00
39141;BME280;24875;48.436;10.298;2024-03-08T11:17:14;95741.94;;;7.79;100.00
39141;BME280;24875;48.436;10.298;2024-03-08T11:19:46;95744.25;;;8.04;100.00
39141;BME280;24875;48.436;10.298;2024-03-08T11:22:21;95734.28;;;7.70;100.00
39141;BME280;24875;48.436;10.298;2024-03-08T11:24:51;95734.63;;;7.97;100.00
39141;BME280;24875;48.436;10.298;2024-03-08T11:27:17;95735.00;;;7.86;100.00
39141;BME280;24875;48.436;10.298;2024-03-08T11:29:59;95728.31;;;8.14;100.00
39141;BME280;24875;48.436;10.298;2024-03-08T11:32:27;95728.41;;;7.90;100.00
39141;BME280;24875;48.436;10.298;2024-03-08T11:34:55;95724.25;;;7.43;100.00
39141;BME280;24875;48.436;10.298;2024-03-08T11:37:22;95708.72;;;7.94;100.00
39141;BME280;24875;48.436;10.298;2024-03-08T11:39:51;95709.81;;;8.30;100.00
39141;BME280;24875;48.436;10.298;2024-03-08T11:42:24;95703.06;;;8.72;100.00
39141;BME280;24875;48.436;10.298;2024-03-08T11:44:53;95700.59;;;8.34;100.00
39141;BME280;24875;48.436;10.298;2024-03-08T11:47:20;95706.72;;;9.14;100.00
39141;BME280;24875;48.436;10.298;2024-03-08T11:49:47;95689.06;;;9.37;100.00
39141;BME280;24875;48.436;10.298;2024-03-08T11:52:15;95685.66;;;9.92;100.00
39141;BME280;24875;48.436;10.298;2024-03-08T11:54:42;95685.75;;;9.64;100.00
39141;BME280;24875;48.436;10.298;2024-03-08T11:57:11;95678.97;;;9.55;100.00
39141;BME280;24875;48.436;10.298;2024-03-08T11:59:37;95678.88;;;9.48;96.83
39141;BME280;24875;48.436;10.298;2024-03-08T12:02:05;95686.66;;;9.56;100.00
39141;BME280;24875;48.436;10.298;2024-03-08T12:04:35;95676.72;;;9.23;100.00
39141;BME280;24875;48.436;10.298;2024-03-08T12:07:02;95676.06;;;9.50;100.00
39141;BME280;24875;48.436;10.298;2024-03-08T12:09:34;95665.44;;;9.58;100.00
39141;BME280;24875;48.436;10.298;2024-03-08T12:12:01;95652.22;;;9.86;100.00
39141;BME280;24875;48.436;10.298;2024-03-08T12:14:29;95653.47;;;9.90;100.00
39141;BME280;24875;48.436;10.298;2024-03-08T12:16:57;95643.09;;;10.03;100.00
39141;BME280;24875;48.436;10.298;2024-03-08T12:19:23;95647.13;;;9.35;100.00
39141;BME280;24875;48.436;10.298;2024-03-08T12:21:50;95637.28;;;9.93;100.00
39141;BME280;24875;48.436;10.298;2024-03-08T12:24:17;95629.13;;;10.51;97.16
39141;BME280;24875;48.436;10.298;2024-03-08T12:26:45;95623.72;;;10.59;94.90
39141;BME280;24875;48.436;10.298;2024-03-08T12:29:18;95620.13;;;10.39;100.00
39141;BME280;24875;48.436;10.298;2024-03-08T12:31:51;95614.03;;;10.66;97.54
39141;BME280;24875;48.436;10.298;2024-03-08T12:34:18;95612.41;;;10.92;90.42
39141;BME280;24875;48.436;10.298;2024-03-08T12:36:45;95614.94;;;10.79;93.08
39141;BME280;24875;48.436;10.298;2024-03-08T12:39:15;95611.97;;;10.89;95.54
39141;BME280;24875;48.436;10.298;2024-03-08T12:41:42;95604.19;;;11.14;90.43
39141;BME280;24875;48.436;10.298;2024-03-08T12:44:09;95591.53;;;11.37;89.47
39141;BME280;24875;48.436;10.298;2024-03-08T12:46:37;95591.06;;;11.67;89.24
39141;BME280;24875;48.436;10.298;2024-03-08T12:49:07;95584.34;;;11.65;88.91
39141;BME280;24875;48.436;10.298;2024-03-08T12:51:34;95592.00;;;11.13;92.52
39141;BME280;24875;48.436;10.298;2024-03-08T12:54:01;95585.75;;;11.14;94.87